Terminal Aerodrome Forecast
Issued by NWS Dallas/Fort Worth, TX

Home | Current Version | Previous Version | Text Only | Print | Product List | Glossary On
Versions: 1 2 3 4 5 6 7 8 9 10 11 12 13 14 15 16 17 18 19 20 21 22 23 24 25
341
FTUS44 KFWD 060308 AAB
TAFACT
TAF AMD
KACT 060308Z 0603/0624 12007KT P6SM OVC100
     FM060500 14011KT P6SM VCSH BKN080
     FM060700 17014KT P6SM -RA BKN070
     FM061000 25008KT P6SM SCT080 BKN150
     FM061400 30014KT P6SM BKN040
     FM061800 35017KT P6SM SCT080 SCT150=

USA.gov is the U.S. government's official web portal to all federal, state and local government web resources and services.